sensor_id;sensor_type;location;lat;lon;timestamp;P1;durP1;ratioP1;P2;durP2;ratioP2
33076;SDS011;38790;51.964;5.924;2022-09-28T00:01:25;18.80;;;14.00;;
33076;SDS011;38790;51.964;5.924;2022-09-28T00:03:53;22.52;;;14.98;;
33076;SDS011;38790;51.964;5.924;2022-09-28T00:06:23;21.42;;;15.32;;
33076;SDS011;38790;51.964;5.924;2022-09-28T00:08:51;22.83;;;13.90;;
33076;SDS011;38790;51.964;5.924;2022-09-28T00:11:17;21.25;;;13.52;;
33076;SDS011;38790;51.964;5.924;2022-09-28T00:13:47;16.05;;;13.48;;
33076;SDS011;38790;51.964;5.924;2022-09-28T00:16:16;23.05;;;13.68;;
33076;SDS011;38790;51.964;5.924;2022-09-28T00:18:44;21.55;;;14.52;;
33076;SDS011;38790;51.964;5.924;2022-09-28T00:21:12;17.65;;;14.85;;
33076;SDS011;38790;51.964;5.924;2022-09-28T00:23:40;22.02;;;14.98;;
33076;SDS011;38790;51.964;5.924;2022-09-28T00:26:25;21.20;;;14.93;;
33076;SDS011;38790;51.964;5.924;2022-09-28T00:28:53;19.52;;;14.20;;
33076;SDS011;38790;51.964;5.924;2022-09-28T00:31:20;21.10;;;16.85;;
33076;SDS011;38790;51.964;5.924;2022-09-28T00:33:53;21.05;;;16.13;;
33076;SDS011;38790;51.964;5.924;2022-09-28T00:36:21;19.27;;;16.13;;
33076;SDS011;38790;51.964;5.924;2022-09-28T00:38:48;20.75;;;16.38;;
33076;SDS011;38790;51.964;5.924;2022-09-28T00:41:16;20.95;;;16.00;;
33076;SDS011;38790;51.964;5.924;2022-09-28T00:43:42;20.05;;;16.27;;
33076;SDS011;38790;51.964;5.924;2022-09-28T00:46:13;27.77;;;16.13;;
33076;SDS011;38790;51.964;5.924;2022-09-28T00:48:49;25.90;;;16.77;;
33076;SDS011;38790;51.964;5.924;2022-09-28T00:51:21;22.05;;;16.08;;
33076;SDS011;38790;51.964;5.924;2022-09-28T00:53:49;34.75;;;16.85;;
33076;SDS011;38790;51.964;5.924;2022-09-28T00:56:17;25.58;;;16.85;;
33076;SDS011;38790;51.964;5.924;2022-09-28T00:58:47;23.65;;;18.35;;
33076;SDS011;38790;51.964;5.924;2022-09-28T01:01:16;24.08;;;18.08;;
33076;SDS011;38790;51.964;5.924;2022-09-28T01:03:42;25.08;;;17.92;;
33076;SDS011;38790;51.964;5.924;2022-09-28T01:06:22;26.27;;;18.23;;
33076;SDS011;38790;51.964;5.924;2022-09-28T01:08:53;23.13;;;17.15;;
33076;SDS011;38790;51.964;5.924;2022-09-28T01:11:22;27.17;;;17.95;;
33076;SDS011;38790;51.964;5.924;2022-09-28T01:13:50;22.65;;;17.08;;
33076;SDS011;38790;51.964;5.924;2022-09-28T01:19:23;24.65;;;17.65;;
33076;SDS011;38790;51.964;5.924;2022-09-28T01:22:04;24.63;;;18.67;;
33076;SDS011;38790;51.964;5.924;2022-09-28T01:30:40;25.75;;;19.55;;
33076;SDS011;38790;51.964;5.924;2022-09-28T01:33:13;29.08;;;20.58;;
33076;SDS011;38790;51.964;5.924;2022-09-28T01:38:20;23.92;;;18.20;;
33076;SDS011;38790;51.964;5.924;2022-09-28T01:40:50;24.83;;;19.20;;
33076;SDS011;38790;51.964;5.924;2022-09-28T01:43:25;21.58;;;18.08;;
33076;SDS011;38790;51.964;5.924;2022-09-28T01:45:53;19.90;;;16.55;;
33076;SDS011;38790;51.964;5.924;2022-09-28T01:48:55;24.30;;;17.98;;
33076;SDS011;38790;51.964;5.924;2022-09-28T01:51:30;21.67;;;17.83;;
33076;SDS011;38790;51.964;5.924;2022-09-28T01:54:09;24.48;;;17.60;;
33076;SDS011;38790;51.964;5.924;2022-09-28T01:59:07;21.23;;;17.10;;
33076;SDS011;38790;51.964;5.924;2022-09-28T02:01:39;25.38;;;17.90;;
33076;SDS011;38790;51.964;5.924;2022-09-28T02:04:21;27.85;;;18.77;;
33076;SDS011;38790;51.964;5.924;2022-09-28T02:06:52;23.08;;;17.90;;
33076;SDS011;38790;51.964;5.924;2022-09-28T02:09:34;23.35;;;18.30;;
33076;SDS011;38790;51.964;5.924;2022-09-28T02:12:08;31.63;;;19.75;;
33076;SDS011;38790;51.964;5.924;2022-09-28T02:14:39;24.48;;;18.77;;
33076;SDS011;38790;51.964;5.924;2022-09-28T02:17:08;26.05;;;20.45;;
33076;SDS011;38790;51.964;5.924;2022-09-28T02:19:34;25.02;;;20.30;;
33076;SDS011;38790;51.964;5.924;2022-09-28T02:27:09;22.58;;;19.13;;
33076;SDS011;38790;51.964;5.924;2022-09-28T02:29:40;25.10;;;18.05;;
33076;SDS011;38790;51.964;5.924;2022-09-28T02:32:06;28.42;;;19.30;;
33076;SDS011;38790;51.964;5.924;2022-09-28T02:34:32;25.38;;;18.92;;
33076;SDS011;38790;51.964;5.924;2022-09-28T02:37:00;27.30;;;17.55;;
33076;SDS011;38790;51.964;5.924;2022-09-28T02:39:27;19.98;;;17.05;;
33076;SDS011;38790;51.964;5.924;2022-09-28T02:42:00;21.88;;;16.30;;
33076;SDS011;38790;51.964;5.924;2022-09-28T02:50:29;19.40;;;17.00;;
33076;SDS011;38790;51.964;5.924;2022-09-28T02:56:03;28.05;;;14.80;;
33076;SDS011;38790;51.964;5.924;2022-09-28T02:58:41;19.65;;;15.40;;
33076;SDS011;38790;51.964;5.924;2022-09-28T03:01:29;20.10;;;15.10;;
33076;SDS011;38790;51.964;5.924;2022-09-28T03:09:28;26.65;;;14.43;;
33076;SDS011;38790;51.964;5.924;2022-09-28T03:12:02;17.02;;;14.55;;
33076;SDS011;38790;51.964;5.924;2022-09-28T03:14:34;18.98;;;15.02;;
33076;SDS011;38790;51.964;5.924;2022-09-28T03:17:00;21.52;;;14.98;;
33076;SDS011;38790;51.964;5.924;2022-09-28T03:19:28;25.45;;;15.45;;
33076;SDS011;38790;51.964;5.924;2022-09-28T03:21:56;20.70;;;15.73;;
33076;SDS011;38790;51.964;5.924;2022-09-28T03:24:24;19.10;;;15.60;;
33076;SDS011;38790;51.964;5.924;2022-09-28T03:26:50;20.88;;;16.10;;
33076;SDS011;38790;51.964;5.924;2022-09-28T03:29:16;17.02;;;13.55;;
33076;SDS011;38790;51.964;5.924;2022-09-28T03:31:45;20.05;;;14.60;;
33076;SDS011;38790;51.964;5.924;2022-09-28T03:34:12;18.98;;;14.55;;
33076;SDS011;38790;51.964;5.924;2022-09-28T03:36:38;17.35;;;14.65;;
33076;SDS011;38790;51.964;5.924;2022-09-28T03:39:04;20.17;;;14.07;;
33076;SDS011;38790;51.964;5.924;2022-09-28T03:41:30;26.05;;;15.43;;
33076;SDS011;38790;51.964;5.924;2022-09-28T03:43:56;20.15;;;14.73;;
33076;SDS011;38790;51.964;5.924;2022-09-28T03:46:22;21.55;;;14.65;;
33076;SDS011;38790;51.964;5.924;2022-09-28T03:48:48;15.07;;;13.48;;
33076;SDS011;38790;51.964;5.924;2022-09-28T03:51:14;21.67;;;13.27;;
33076;SDS011;38790;51.964;5.924;2022-09-28T03:53:41;16.38;;;13.30;;
33076;SDS011;38790;51.964;5.924;2022-09-28T03:56:08;18.98;;;13.70;;
33076;SDS011;38790;51.964;5.924;2022-09-28T03:58:37;20.45;;;13.20;;
33076;SDS011;38790;51.964;5.924;2022-09-28T04:01:04;16.02;;;12.70;;
33076;SDS011;38790;51.964;5.924;2022-09-28T04:03:31;22.80;;;13.13;;
33076;SDS011;38790;51.964;5.924;2022-09-28T04:05:58;18.77;;;13.57;;
33076;SDS011;38790;51.964;5.924;2022-09-28T04:08:25;15.60;;;13.88;;
33076;SDS011;38790;51.964;5.924;2022-09-28T04:10:51;14.48;;;12.93;;
33076;SDS011;38790;51.964;5.924;2022-09-28T04:13:21;15.73;;;12.68;;
33076;SDS011;38790;51.964;5.924;2022-09-28T04:15:54;18.10;;;12.68;;
33076;SDS011;38790;51.964;5.924;2022-09-28T04:18:22;16.60;;;12.50;;
33076;SDS011;38790;51.964;5.924;2022-09-28T04:20:58;13.45;;;11.60;;
33076;SDS011;38790;51.964;5.924;2022-09-28T04:23:31;14.68;;;12.07;;
33076;SDS011;38790;51.964;5.924;2022-09-28T04:25:59;15.00;;;12.32;;
33076;SDS011;38790;51.964;5.924;2022-09-28T04:28:25;25.08;;;11.35;;
33076;SDS011;38790;51.964;5.924;2022-09-28T04:31:10;13.88;;;12.32;;
33076;SDS011;38790;51.964;5.924;2022-09-28T04:33:38;17.50;;;12.65;;
33076;SDS011;38790;51.964;5.924;2022-09-28T04:36:04;13.45;;;11.25;;
33076;SDS011;38790;51.964;5.924;2022-09-28T04:38:31;17.88;;;11.88;;
33076;SDS011;38790;51.964;5.924;2022-09-28T04:40:58;14.98;;;12.60;;
33076;SDS011;38790;51.964;5.924;2022-09-28T04:43:24;15.50;;;12.02;;
33076;SDS011;38790;51.964;5.924;2022-09-28T04:45:50;14.57;;;11.93;;
33076;SDS011;38790;51.964;5.924;2022-09-28T04:48:16;17.08;;;11.20;;
33076;SDS011;38790;51.964;5.924;2022-09-28T04:50:42;18.25;;;11.23;;
33076;SDS011;38790;51.964;5.924;2022-09-28T04:53:09;17.00;;;11.27;;
33076;SDS011;38790;51.964;5.924;2022-09-28T04:55:35;15.63;;;12.15;;
33076;SDS011;38790;51.964;5.924;2022-09-28T04:58:02;13.25;;;11.10;;
33076;SDS011;38790;51.964;5.924;2022-09-28T05:00:29;19.67;;;11.02;;
33076;SDS011;38790;51.964;5.924;2022-09-28T05:02:57;14.15;;;11.55;;
33076;SDS011;38790;51.964;5.924;2022-09-28T05:05:23;14.77;;;10.85;;
33076;SDS011;38790;51.964;5.924;2022-09-28T05:07:49;12.48;;;11.15;;
33076;SDS011;38790;51.964;5.924;2022-09-28T05:10:16;11.63;;;10.25;;
33076;SDS011;38790;51.964;5.924;2022-09-28T05:12:43;15.38;;;11.50;;
33076;SDS011;38790;51.964;5.924;2022-09-28T05:15:09;21.13;;;12.25;;
33076;SDS011;38790;51.964;5.924;2022-09-28T05:17:36;16.70;;;10.13;;
33076;SDS011;38790;51.964;5.924;2022-09-28T05:20:02;13.20;;;11.38;;
33076;SDS011;38790;51.964;5.924;2022-09-28T05:22:29;16.38;;;11.57;;
33076;SDS011;38790;51.964;5.924;2022-09-28T05:24:55;17.23;;;11.52;;
33076;SDS011;38790;51.964;5.924;2022-09-28T05:27:22;14.80;;;10.90;;
33076;SDS011;38790;51.964;5.924;2022-09-28T05:29:48;17.48;;;11.63;;
33076;SDS011;38790;51.964;5.924;2022-09-28T05:32:14;13.02;;;11.15;;
33076;SDS011;38790;51.964;5.924;2022-09-28T05:34:41;19.20;;;11.05;;
33076;SDS011;38790;51.964;5.924;2022-09-28T05:37:07;14.40;;;9.82;;
33076;SDS011;38790;51.964;5.924;2022-09-28T05:39:33;15.75;;;11.35;;
33076;SDS011;38790;51.964;5.924;2022-09-28T05:41:59;13.15;;;10.98;;
33076;SDS011;38790;51.964;5.924;2022-09-28T05:44:25;12.88;;;11.55;;
33076;SDS011;38790;51.964;5.924;2022-09-28T05:46:51;19.27;;;11.40;;
33076;SDS011;38790;51.964;5.924;2022-09-28T05:49:19;14.07;;;10.32;;
33076;SDS011;38790;51.964;5.924;2022-09-28T05:51:45;18.65;;;12.65;;
33076;SDS011;38790;51.964;5.924;2022-09-28T05:54:11;23.25;;;11.85;;
33076;SDS011;38790;51.964;5.924;2022-09-28T05:56:37;17.95;;;11.75;;
33076;SDS011;38790;51.964;5.924;2022-09-28T05:59:03;19.08;;;11.48;;
33076;SDS011;38790;51.964;5.924;2022-09-28T06:01:30;11.00;;;9.88;;
33076;SDS011;38790;51.964;5.924;2022-09-28T06:03:56;16.75;;;11.57;;
33076;SDS011;38790;51.964;5.924;2022-09-28T06:06:23;28.10;;;11.85;;
33076;SDS011;38790;51.964;5.924;2022-09-28T06:08:49;12.27;;;10.75;;
33076;SDS011;38790;51.964;5.924;2022-09-28T06:11:15;16.92;;;11.38;;
33076;SDS011;38790;51.964;5.924;2022-09-28T06:13:41;16.67;;;11.65;;
33076;SDS011;38790;51.964;5.924;2022-09-28T06:16:07;18.80;;;11.80;;
33076;SDS011;38790;51.964;5.924;2022-09-28T06:18:38;17.58;;;12.13;;
33076;SDS011;38790;51.964;5.924;2022-09-28T06:21:05;10.85;;;9.13;;
33076;SDS011;38790;51.964;5.924;2022-09-28T06:23:35;13.57;;;11.27;;
33076;SDS011;38790;51.964;5.924;2022-09-28T06:26:01;20.60;;;11.35;;
33076;SDS011;38790;51.964;5.924;2022-09-28T06:28:27;13.65;;;10.77;;
33076;SDS011;38790;51.964;5.924;2022-09-28T06:30:53;14.88;;;10.63;;
33076;SDS011;38790;51.964;5.924;2022-09-28T06:33:19;10.73;;;9.18;;
33076;SDS011;38790;51.964;5.924;2022-09-28T06:35:46;11.20;;;8.38;;
33076;SDS011;38790;51.964;5.924;2022-09-28T06:38:12;12.07;;;7.90;;
33076;SDS011;38790;51.964;5.924;2022-09-28T06:40:38;9.00;;;7.45;;
33076;SDS011;38790;51.964;5.924;2022-09-28T06:45:35;7.95;;;6.78;;
33076;SDS011;38790;51.964;5.924;2022-09-28T06:48:02;10.65;;;6.95;;
33076;SDS011;38790;51.964;5.924;2022-09-28T06:50:30;12.05;;;7.00;;
33076;SDS011;38790;51.964;5.924;2022-09-28T06:53:02;9.82;;;6.50;;
33076;SDS011;38790;51.964;5.924;2022-09-28T06:55:31;8.88;;;6.75;;
33076;SDS011;38790;51.964;5.924;2022-09-28T06:58:04;8.90;;;6.57;;
33076;SDS011;38790;51.964;5.924;2022-09-28T07:00:32;13.10;;;6.50;;
33076;SDS011;38790;51.964;5.924;2022-09-28T07:03:13;10.13;;;5.93;;
33076;SDS011;38790;51.964;5.924;2022-09-28T07:05:42;9.75;;;6.38;;
33076;SDS011;38790;51.964;5.924;2022-09-28T07:08:09;10.30;;;6.22;;
33076;SDS011;38790;51.964;5.924;2022-09-28T07:10:40;12.32;;;6.15;;
33076;SDS011;38790;51.964;5.924;2022-09-28T07:13:11;10.00;;;6.38;;
33076;SDS011;38790;51.964;5.924;2022-09-28T07:15:38;7.95;;;5.90;;
33076;SDS011;38790;51.964;5.924;2022-09-28T07:18:05;10.15;;;5.93;;
33076;SDS011;38790;51.964;5.924;2022-09-28T07:20:35;7.22;;;5.22;;
33076;SDS011;38790;51.964;5.924;2022-09-28T07:23:03;15.77;;;5.47;;
33076;SDS011;38790;51.964;5.924;2022-09-28T07:25:31;12.23;;;4.93;;
33076;SDS011;38790;51.964;5.924;2022-09-28T07:27:57;8.55;;;4.35;;
33076;SDS011;38790;51.964;5.924;2022-09-28T07:30:25;5.93;;;4.60;;
33076;SDS011;38790;51.964;5.924;2022-09-28T07:32:52;4.38;;;3.97;;
33076;SDS011;38790;51.964;5.924;2022-09-28T07:35:19;5.80;;;3.80;;
33076;SDS011;38790;51.964;5.924;2022-09-28T07:37:46;11.25;;;3.92;;
33076;SDS011;38790;51.964;5.924;2022-09-28T07:40:13;6.28;;;4.20;;
33076;SDS011;38790;51.964;5.924;2022-09-28T07:43:04;4.20;;;3.70;;
33076;SDS011;38790;51.964;5.924;2022-09-28T07:45:31;5.45;;;3.50;;
33076;SDS011;38790;51.964;5.924;2022-09-28T07:48:00;6.63;;;3.20;;
33076;SDS011;38790;51.964;5.924;2022-09-28T07:50:27;3.67;;;3.20;;
33076;SDS011;38790;51.964;5.924;2022-09-28T07:52:54;3.58;;;3.22;;
33076;SDS011;38790;51.964;5.924;2022-09-28T07:55:21;3.85;;;3.17;;
33076;SDS011;38790;51.964;5.924;2022-09-28T07:57:56;7.75;;;2.95;;
33076;SDS011;38790;51.964;5.924;2022-09-28T08:00:29;3.67;;;2.92;;
33076;SDS011;38790;51.964;5.924;2022-09-28T08:03:00;8.15;;;2.53;;
33076;SDS011;38790;51.964;5.924;2022-09-28T08:05:27;5.10;;;2.78;;
33076;SDS011;38790;51.964;5.924;2022-09-28T08:07:56;2.55;;;2.17;;
33076;SDS011;38790;51.964;5.924;2022-09-28T08:10:23;3.05;;;2.22;;
33076;SDS011;38790;51.964;5.924;2022-09-28T08:12:57;4.05;;;2.10;;
33076;SDS011;38790;51.964;5.924;2022-09-28T08:15:28;5.70;;;2.30;;
33076;SDS011;38790;51.964;5.924;2022-09-28T08:18:00;2.63;;;1.80;;
33076;SDS011;38790;51.964;5.924;2022-09-28T08:20:27;2.10;;;1.90;;
33076;SDS011;38790;51.964;5.924;2022-09-28T08:25:38;4.57;;;2.05;;
33076;SDS011;38790;51.964;5.924;2022-09-28T08:28:04;10.93;;;1.88;;
33076;SDS011;38790;51.964;5.924;2022-09-28T08:30:31;9.65;;;1.58;;
33076;SDS011;38790;51.964;5.924;2022-09-28T08:32:58;3.58;;;1.60;;
33076;SDS011;38790;51.964;5.924;2022-09-28T08:35:24;5.05;;;1.65;;
33076;SDS011;38790;51.964;5.924;2022-09-28T08:37:51;5.43;;;1.55;;
33076;SDS011;38790;51.964;5.924;2022-09-28T08:40:22;3.20;;;1.40;;
33076;SDS011;38790;51.964;5.924;2022-09-28T08:42:57;5.47;;;1.75;;
33076;SDS011;38790;51.964;5.924;2022-09-28T08:45:29;6.55;;;1.23;;
33076;SDS011;38790;51.964;5.924;2022-09-28T08:50:49;3.58;;;1.50;;
33076;SDS011;38790;51.964;5.924;2022-09-28T08:56:01;4.88;;;1.40;;
33076;SDS011;38790;51.964;5.924;2022-09-28T08:58:31;5.60;;;1.30;;
33076;SDS011;38790;51.964;5.924;2022-09-28T09:01:02;2.95;;;1.38;;
33076;SDS011;38790;51.964;5.924;2022-09-28T09:03:33;5.55;;;1.65;;
33076;SDS011;38790;51.964;5.924;2022-09-28T09:11:50;4.63;;;1.20;;
33076;SDS011;38790;51.964;5.924;2022-09-28T09:20:16;4.90;;;1.58;;
33076;SDS011;38790;51.964;5.924;2022-09-28T09:22:59;2.28;;;1.33;;
33076;SDS011;38790;51.964;5.924;2022-09-28T09:25:33;4.25;;;1.25;;
33076;SDS011;38790;51.964;5.924;2022-09-28T09:30:51;2.05;;;1.00;;
33076;SDS011;38790;51.964;5.924;2022-09-28T09:33:37;3.67;;;1.10;;
33076;SDS011;38790;51.964;5.924;2022-09-28T09:39:01;6.40;;;1.10;;
33076;SDS011;38790;51.964;5.924;2022-09-28T09:47:34;6.63;;;0.73;;
33076;SDS011;38790;51.964;5.924;2022-09-28T09:55:23;3.55;;;1.30;;
33076;SDS011;38790;51.964;5.924;2022-09-28T09:57:56;3.85;;;0.80;;
33076;SDS011;38790;51.964;5.924;2022-09-28T10:00:29;1.17;;;0.80;;
33076;SDS011;38790;51.964;5.924;2022-09-28T10:02:56;2.47;;;0.88;;
33076;SDS011;38790;51.964;5.924;2022-09-28T10:05:25;1.75;;;0.70;;
33076;SDS011;38790;51.964;5.924;2022-09-28T10:08:04;1.63;;;0.60;;
33076;SDS011;38790;51.964;5.924;2022-09-28T10:10:53;6.15;;;0.77;;
33076;SDS011;38790;51.964;5.924;2022-09-28T10:13:32;5.38;;;0.60;;
33076;SDS011;38790;51.964;5.924;2022-09-28T10:15:58;0.60;;;0.60;;
33076;SDS011;38790;51.964;5.924;2022-09-28T10:18:25;2.97;;;0.70;;
33076;SDS011;38790;51.964;5.924;2022-09-28T10:20:52;6.10;;;1.70;;
33076;SDS011;38790;51.964;5.924;2022-09-28T10:23:25;2.78;;;0.60;;
33076;SDS011;38790;51.964;5.924;2022-09-28T10:26:05;1.95;;;0.40;;
33076;SDS011;38790;51.964;5.924;2022-09-28T10:31:45;3.10;;;0.70;;
33076;SDS011;38790;51.964;5.924;2022-09-28T10:34:14;1.38;;;0.60;;
33076;SDS011;38790;51.964;5.924;2022-09-28T10:36:45;1.27;;;0.57;;
33076;SDS011;38790;51.964;5.924;2022-09-28T10:39:28;3.95;;;0.70;;
33076;SDS011;38790;51.964;5.924;2022-09-28T10:42:06;5.97;;;0.50;;
33076;SDS011;38790;51.964;5.924;2022-09-28T10:44:52;1.42;;;0.50;;
33076;SDS011;38790;51.964;5.924;2022-09-28T10:47:41;1.58;;;0.57;;
33076;SDS011;38790;51.964;5.924;2022-09-28T10:50:18;1.08;;;0.50;;
33076;SDS011;38790;51.964;5.924;2022-09-28T10:52:54;0.50;;;0.40;;
33076;SDS011;38790;51.964;5.924;2022-09-28T10:55:36;1.42;;;0.60;;
33076;SDS011;38790;51.964;5.924;2022-09-28T11:01:00;2.25;;;0.52;;
33076;SDS011;38790;51.964;5.924;2022-09-28T11:03:29;0.85;;;0.47;;
33076;SDS011;38790;51.964;5.924;2022-09-28T11:06:03;5.93;;;0.60;;
33076;SDS011;38790;51.964;5.924;2022-09-28T11:08:33;2.80;;;0.52;;
33076;SDS011;38790;51.964;5.924;2022-09-28T11:11:14;1.60;;;0.70;;
33076;SDS011;38790;51.964;5.924;2022-09-28T11:13:47;1.67;;;0.63;;
33076;SDS011;38790;51.964;5.924;2022-09-28T11:16:28;1.05;;;0.40;;
33076;SDS011;38790;51.964;5.924;2022-09-28T11:18:56;0.85;;;0.40;;
33076;SDS011;38790;51.964;5.924;2022-09-28T11:21:29;3.13;;;0.95;;
33076;SDS011;38790;51.964;5.924;2022-09-28T11:24:05;1.98;;;0.80;;
33076;SDS011;38790;51.964;5.924;2022-09-28T11:26:53;0.95;;;0.55;;
33076;SDS011;38790;51.964;5.924;2022-09-28T11:29:42;2.25;;;0.47;;
33076;SDS011;38790;51.964;5.924;2022-09-28T11:32:11;2.00;;;0.47;;
33076;SDS011;38790;51.964;5.924;2022-09-28T11:34:41;1.15;;;0.38;;
33076;SDS011;38790;51.964;5.924;2022-09-28T11:39:44;4.22;;;0.50;;
33076;SDS011;38790;51.964;5.924;2022-09-28T11:45:47;0.68;;;0.43;;
33076;SDS011;38790;51.964;5.924;2022-09-28T11:48:14;0.98;;;0.55;;
33076;SDS011;38790;51.964;5.924;2022-09-28T11:53:22;0.95;;;0.50;;
33076;SDS011;38790;51.964;5.924;2022-09-28T11:56:02;0.63;;;0.50;;
33076;SDS011;38790;51.964;5.924;2022-09-28T11:58:51;1.15;;;0.40;;
33076;SDS011;38790;51.964;5.924;2022-09-28T12:04:12;3.50;;;0.35;;
33076;SDS011;38790;51.964;5.924;2022-09-28T12:07:05;2.58;;;0.43;;
33076;SDS011;38790;51.964;5.924;2022-09-28T12:12:19;3.63;;;0.47;;
33076;SDS011;38790;51.964;5.924;2022-09-28T12:15:01;0.38;;;0.30;;
33076;SDS011;38790;51.964;5.924;2022-09-28T12:17:45;4.00;;;0.50;;
33076;SDS011;38790;51.964;5.924;2022-09-28T12:20:26;1.58;;;0.35;;
33076;SDS011;38790;51.964;5.924;2022-09-28T12:25:44;0.60;;;0.40;;
33076;SDS011;38790;51.964;5.924;2022-09-28T12:28:32;2.13;;;0.40;;
33076;SDS011;38790;51.964;5.924;2022-09-28T12:52:31;0.93;;;0.52;;
33076;SDS011;38790;51.964;5.924;2022-09-28T12:55:14;4.47;;;0.60;;
33076;SDS011;38790;51.964;5.924;2022-09-28T13:00:20;1.20;;;0.28;;
33076;SDS011;38790;51.964;5.924;2022-09-28T13:03:53;1.15;;;0.60;;
33076;SDS011;38790;51.964;5.924;2022-09-28T13:22:41;1.48;;;0.40;;
33076;SDS011;38790;51.964;5.924;2022-09-28T13:25:20;0.60;;;0.40;;
33076;SDS011;38790;51.964;5.924;2022-09-28T13:27:56;0.90;;;0.50;;
33076;SDS011;38790;51.964;5.924;2022-09-28T13:30:25;0.60;;;0.50;;
33076;SDS011;38790;51.964;5.924;2022-09-28T13:32:52;1.25;;;0.57;;
33076;SDS011;38790;51.964;5.924;2022-09-28T13:35:21;4.72;;;0.60;;
33076;SDS011;38790;51.964;5.924;2022-09-28T13:43:30;0.50;;;0.50;;
33076;SDS011;38790;51.964;5.924;2022-09-28T13:46:09;2.22;;;0.47;;
33076;SDS011;38790;51.964;5.924;2022-09-28T13:48:56;2.67;;;0.50;;
33076;SDS011;38790;51.964;5.924;2022-09-28T13:59:45;3.60;;;1.42;;
33076;SDS011;38790;51.964;5.924;2022-09-28T14:10:50;1.58;;;0.80;;
33076;SDS011;38790;51.964;5.924;2022-09-28T14:14:02;4.47;;;0.82;;
33076;SDS011;38790;51.964;5.924;2022-09-28T14:19:03;0.77;;;0.70;;
33076;SDS011;38790;51.964;5.924;2022-09-28T14:27:09;5.22;;;0.90;;
33076;SDS011;38790;51.964;5.924;2022-09-28T14:29:37;1.63;;;1.35;;
33076;SDS011;38790;51.964;5.924;2022-09-28T14:32:20;10.25;;;1.55;;
33076;SDS011;38790;51.964;5.924;2022-09-28T14:35:01;2.53;;;1.03;;
33076;SDS011;38790;51.964;5.924;2022-09-28T14:37:40;2.00;;;1.20;;
33076;SDS011;38790;51.964;5.924;2022-09-28T14:40:30;3.40;;;1.20;;
33076;SDS011;38790;51.964;5.924;2022-09-28T14:43:25;5.07;;;1.38;;
33076;SDS011;38790;51.964;5.924;2022-09-28T14:59:05;3.50;;;1.05;;
33076;SDS011;38790;51.964;5.924;2022-09-28T15:01:35;1.50;;;0.80;;
33076;SDS011;38790;51.964;5.924;2022-09-28T15:04:03;6.05;;;1.23;;
33076;SDS011;38790;51.964;5.924;2022-09-28T15:06:43;2.47;;;1.20;;
33076;SDS011;38790;51.964;5.924;2022-09-28T15:12:03;1.25;;;0.90;;
33076;SDS011;38790;51.964;5.924;2022-09-28T15:15:22;4.25;;;1.30;;
33076;SDS011;38790;51.964;5.924;2022-09-28T15:17:33;1.58;;;1.00;;
33076;SDS011;38790;51.964;5.924;2022-09-28T15:22:30;2.42;;;0.88;;
33076;SDS011;38790;51.964;5.924;2022-09-28T15:24:59;2.05;;;1.02;;
33076;SDS011;38790;51.964;5.924;2022-09-28T15:27:33;1.35;;;0.90;;
33076;SDS011;38790;51.964;5.924;2022-09-28T15:30:14;3.90;;;0.95;;
33076;SDS011;38790;51.964;5.924;2022-09-28T15:32:50;2.60;;;1.10;;
33076;SDS011;38790;51.964;5.924;2022-09-28T15:35:20;4.22;;;0.90;;
33076;SDS011;38790;51.964;5.924;2022-09-28T15:37:51;0.60;;;0.60;;
33076;SDS011;38790;51.964;5.924;2022-09-28T15:42:54;1.02;;;0.82;;
33076;SDS011;38790;51.964;5.924;2022-09-28T15:45:25;1.00;;;0.80;;
33076;SDS011;38790;51.964;5.924;2022-09-28T15:48:18;4.28;;;1.00;;
33076;SDS011;38790;51.964;5.924;2022-09-28T15:50:58;5.28;;;1.05;;
33076;SDS011;38790;51.964;5.924;2022-09-28T15:53:30;3.00;;;1.13;;
33076;SDS011;38790;51.964;5.924;2022-09-28T15:55:59;3.65;;;1.08;;
33076;SDS011;38790;51.964;5.924;2022-09-28T15:58:34;3.17;;;1.30;;
33076;SDS011;38790;51.964;5.924;2022-09-28T16:01:25;1.77;;;1.23;;
33076;SDS011;38790;51.964;5.924;2022-09-28T16:03:53;3.08;;;1.08;;
33076;SDS011;38790;51.964;5.924;2022-09-28T16:06:19;6.97;;;1.20;;
33076;SDS011;38790;51.964;5.924;2022-09-28T16:08:45;2.15;;;1.10;;
33076;SDS011;38790;51.964;5.924;2022-09-28T16:13:53;3.28;;;0.98;;
33076;SDS011;38790;51.964;5.924;2022-09-28T16:16:32;1.27;;;0.80;;
33076;SDS011;38790;51.964;5.924;2022-09-28T16:19:01;1.77;;;0.85;;
33076;SDS011;38790;51.964;5.924;2022-09-28T16:29:33;2.97;;;1.17;;
33076;SDS011;38790;51.964;5.924;2022-09-28T16:35:06;2.40;;;1.20;;
33076;SDS011;38790;51.964;5.924;2022-09-28T16:37:43;2.25;;;1.25;;
33076;SDS011;38790;51.964;5.924;2022-09-28T16:40:13;3.50;;;1.30;;
33076;SDS011;38790;51.964;5.924;2022-09-28T16:42:39;4.47;;;1.85;;
33076;SDS011;38790;51.964;5.924;2022-09-28T16:45:11;4.47;;;1.50;;
33076;SDS011;38790;51.964;5.924;2022-09-28T16:47:44;3.60;;;1.58;;
33076;SDS011;38790;51.964;5.924;2022-09-28T16:50:14;2.15;;;1.35;;
33076;SDS011;38790;51.964;5.924;2022-09-28T16:52:41;3.08;;;1.20;;
33076;SDS011;38790;51.964;5.924;2022-09-28T16:55:26;4.18;;;1.63;;
33076;SDS011;38790;51.964;5.924;2022-09-28T16:57:53;4.10;;;1.60;;
33076;SDS011;38790;51.964;5.924;2022-09-28T17:00:20;2.15;;;1.35;;
33076;SDS011;38790;51.964;5.924;2022-09-28T17:02:48;4.55;;;1.42;;
33076;SDS011;38790;51.964;5.924;2022-09-28T17:05:18;2.72;;;1.40;;
33076;SDS011;38790;51.964;5.924;2022-09-28T17:07:48;1.98;;;1.30;;
33076;SDS011;38790;51.964;5.924;2022-09-28T17:13:02;4.80;;;1.42;;
33076;SDS011;38790;51.964;5.924;2022-09-28T17:15:28;3.22;;;1.40;;
33076;SDS011;38790;51.964;5.924;2022-09-28T17:17:54;1.80;;;1.50;;
33076;SDS011;38790;51.964;5.924;2022-09-28T17:20:21;3.15;;;1.70;;
33076;SDS011;38790;51.964;5.924;2022-09-28T17:22:51;2.55;;;1.52;;
33076;SDS011;38790;51.964;5.924;2022-09-28T17:25:18;3.55;;;1.40;;
33076;SDS011;38790;51.964;5.924;2022-09-28T17:27:46;3.53;;;1.58;;
33076;SDS011;38790;51.964;5.924;2022-09-28T17:30:13;3.17;;;1.70;;
33076;SDS011;38790;51.964;5.924;2022-09-28T17:32:41;3.97;;;1.55;;
33076;SDS011;38790;51.964;5.924;2022-09-28T17:35:10;2.75;;;1.42;;
33076;SDS011;38790;51.964;5.924;2022-09-28T17:37:41;7.45;;;2.45;;
33076;SDS011;38790;51.964;5.924;2022-09-28T17:40:24;6.93;;;1.80;;
33076;SDS011;38790;51.964;5.924;2022-09-28T17:45:21;6.93;;;2.30;;
33076;SDS011;38790;51.964;5.924;2022-09-28T17:47:53;8.18;;;2.17;;
33076;SDS011;38790;51.964;5.924;2022-09-28T17:50:24;9.82;;;4.45;;
33076;SDS011;38790;51.964;5.924;2022-09-28T17:52:52;27.20;;;15.15;;
33076;SDS011;38790;51.964;5.924;2022-09-28T17:55:23;26.42;;;15.15;;
33076;SDS011;38790;51.964;5.924;2022-09-28T17:57:53;9.60;;;4.60;;
33076;SDS011;38790;51.964;5.924;2022-09-28T18:00:20;7.88;;;3.80;;
33076;SDS011;38790;51.964;5.924;2022-09-28T18:02:55;5.32;;;3.70;;
33076;SDS011;38790;51.964;5.924;2022-09-28T18:05:23;6.97;;;2.95;;
33076;SDS011;38790;51.964;5.924;2022-09-28T18:07:51;4.57;;;2.70;;
33076;SDS011;38790;51.964;5.924;2022-09-28T18:10:18;7.90;;;2.70;;
33076;SDS011;38790;51.964;5.924;2022-09-28T18:12:46;5.32;;;2.55;;
33076;SDS011;38790;51.964;5.924;2022-09-28T18:15:14;3.83;;;2.38;;
33076;SDS011;38790;51.964;5.924;2022-09-28T18:17:40;8.40;;;3.13;;
33076;SDS011;38790;51.964;5.924;2022-09-28T18:20:07;6.65;;;2.83;;
33076;SDS011;38790;51.964;5.924;2022-09-28T18:22:34;4.95;;;3.05;;
33076;SDS011;38790;51.964;5.924;2022-09-28T18:25:01;4.55;;;3.20;;
33076;SDS011;38790;51.964;5.924;2022-09-28T18:27:28;4.13;;;3.25;;